createdAt,value
2018-12-18T00:01:42.866Z,83.54
2018-12-18T00:04:13.333Z,83.36
2018-12-18T00:06:40.975Z,83.13
2018-12-18T00:09:09.659Z,83.19
2018-12-18T00:11:37.132Z,83.28
2018-12-18T00:14:04.636Z,82.89
2018-12-18T00:16:32.326Z,82.79
2018-12-18T00:18:59.835Z,82.66
2018-12-18T00:21:27.340Z,82.48
2018-12-18T00:23:54.815Z,82.52
2018-12-18T00:26:22.341Z,82.60
2018-12-18T00:28:50.181Z,82.89
2018-12-18T00:31:18.094Z,82.99
2018-12-18T00:33:46.181Z,82.96
2018-12-18T00:36:15.064Z,82.74
2018-12-18T00:38:42.909Z,82.66
2018-12-18T00:41:10.531Z,82.41
2018-12-18T00:43:38.031Z,82.78
2018-12-18T00:46:05.546Z,82.21
2018-12-18T00:48:33.105Z,82.51
2018-12-18T00:51:00.735Z,83.02
2018-12-18T00:53:28.228Z,82.46
2018-12-18T00:55:55.777Z,82.50
2018-12-18T00:58:23.337Z,82.97
2018-12-18T01:00:51.030Z,82.04
2018-12-18T01:03:19.284Z,82.63
2018-12-18T01:05:46.822Z,82.41
2018-12-18T01:08:14.295Z,82.48
2018-12-18T01:10:41.855Z,82.30
2018-12-18T01:13:09.541Z,82.66
2018-12-18T01:15:37.037Z,82.78
2018-12-18T01:18:04.547Z,82.15
2018-12-18T01:20:32.017Z,82.72
2018-12-18T01:22:59.529Z,81.99
2018-12-18T01:25:28.369Z,82.59
2018-12-18T01:27:57.529Z,81.75
2018-12-18T01:30:26.128Z,82.14
2018-12-18T01:32:53.957Z,81.89
2018-12-18T01:35:21.501Z,82.32
2018-12-18T01:37:49.461Z,81.51
2018-12-18T01:40:20.522Z,81.36
2018-12-18T01:42:47.993Z,82.01
2018-12-18T01:45:16.011Z,81.29
2018-12-18T01:47:43.448Z,81.67
2018-12-18T01:50:10.918Z,81.56
2018-12-18T01:52:38.422Z,81.19
2018-12-18T01:55:06.688Z,81.25
2018-12-18T01:57:34.530Z,81.53
2018-12-18T02:00:02.056Z,81.19
2018-12-18T02:02:29.681Z,81.92
2018-12-18T02:04:57.182Z,81.41
2018-12-18T02:07:24.701Z,81.28
2018-12-18T02:09:52.180Z,81.35
2018-12-18T02:12:19.832Z,81.24
2018-12-18T02:14:47.305Z,81.53
2018-12-18T02:17:14.800Z,80.56
2018-12-18T02:19:42.346Z,80.96
2018-12-18T02:22:09.892Z,80.45
2018-12-18T02:24:38.065Z,80.14
2018-12-18T02:27:05.693Z,80.20
2018-12-18T02:29:33.202Z,80.47
2018-12-18T02:32:00.811Z,80.08
2018-12-18T02:34:28.325Z,80.91
2018-12-18T02:36:56.119Z,80.21
2018-12-18T02:39:23.722Z,80.10
2018-12-18T02:41:51.221Z,80.14
2018-12-18T02:44:18.714Z,80.07
2018-12-18T02:46:46.266Z,80.32
2018-12-18T02:49:13.910Z,80.08
2018-12-18T02:51:41.586Z,80.15
2018-12-18T02:54:09.137Z,79.61
2018-12-18T02:56:36.798Z,80.13
2018-12-18T02:59:04.275Z,80.14
2018-12-18T03:01:31.821Z,80.15
2018-12-18T03:03:59.379Z,79.73
2018-12-18T03:06:27.777Z,79.40
2018-12-18T03:08:55.406Z,80.22
2018-12-18T03:11:22.954Z,79.97
2018-12-18T03:13:50.517Z,79.95
2018-12-18T03:16:18.122Z,79.40
2018-12-18T03:18:45.657Z,79.30
2018-12-18T03:21:13.295Z,80.06
2018-12-18T03:23:41.674Z,79.37
2018-12-18T03:26:09.290Z,79.44
2018-12-18T03:28:36.890Z,79.62
2018-12-18T03:31:04.405Z,79.68
2018-12-18T03:33:31.929Z,79.94
2018-12-18T03:35:59.395Z,79.69
2018-12-18T03:38:27.008Z,79.49
2018-12-18T03:40:54.593Z,79.21
2018-12-18T03:43:23.094Z,79.08
2018-12-18T03:45:53.229Z,79.78
2018-12-18T03:48:20.784Z,79.48
2018-12-18T03:50:48.374Z,79.93
2018-12-18T03:53:16.074Z,80.01
2018-12-18T03:55:43.559Z,79.76
2018-12-18T03:58:12.485Z,80.08
2018-12-18T04:00:40.018Z,80.07
2018-12-18T04:03:07.667Z,79.61
2018-12-18T04:05:35.144Z,79.94
2018-12-18T04:08:03.554Z,79.49
2018-12-18T04:10:31.973Z,79.94
2018-12-18T04:12:59.586Z,79.67
2018-12-18T04:15:27.130Z,79.31
2018-12-18T04:17:54.825Z,79.63
2018-12-18T04:20:24.259Z,79.83
2018-12-18T04:22:51.799Z,79.75
2018-12-18T04:25:19.397Z,79.98
2018-12-18T04:27:46.953Z,80.39
2018-12-18T04:30:14.494Z,80.41
2018-12-18T04:32:42.278Z,80.07
2018-12-18T04:35:09.788Z,80.18
2018-12-18T04:37:37.364Z,80.28
2018-12-18T04:40:06.975Z,79.88
2018-12-18T04:42:34.525Z,79.96
2018-12-18T04:45:02.126Z,79.93
2018-12-18T04:47:29.884Z,80.47
2018-12-18T04:49:57.405Z,80.60
2018-12-18T04:52:25.027Z,79.78
2018-12-18T04:54:52.610Z,80.57
2018-12-18T04:57:20.091Z,80.26
2018-12-18T04:59:47.581Z,81.04
2018-12-18T05:02:15.018Z,80.74
2018-12-18T05:04:49.993Z,80.84
2018-12-18T05:07:12.244Z,80.32
2018-12-18T05:09:39.766Z,80.75
2018-12-18T05:12:07.270Z,80.24
2018-12-18T05:14:35.062Z,81.26
2018-12-18T05:17:02.861Z,81.06
2018-12-18T05:19:30.369Z,80.95
2018-12-18T05:21:58.513Z,80.88
2018-12-18T05:24:25.989Z,80.23
2018-12-18T05:26:53.500Z,80.99
2018-12-18T05:29:20.982Z,80.98
2018-12-18T05:31:48.489Z,81.21
2018-12-18T05:34:15.980Z,80.17
2018-12-18T05:36:43.423Z,80.42
2018-12-18T05:39:10.930Z,80.30
2018-12-18T05:41:38.447Z,80.57
2018-12-18T05:44:06.107Z,80.11
2018-12-18T05:46:33.927Z,80.36
2018-12-18T05:49:01.513Z,80.56
2018-12-18T05:51:29.044Z,80.58
2018-12-18T05:53:56.496Z,80.18
2018-12-18T05:56:24.019Z,80.38
2018-12-18T05:58:51.530Z,80.72
2018-12-18T06:01:18.993Z,80.18
2018-12-18T06:03:46.503Z,80.35
2018-12-18T06:06:13.984Z,80.58
2018-12-18T06:08:41.607Z,79.65
2018-12-18T06:11:09.079Z,80.25
2018-12-18T06:13:36.634Z,80.23
2018-12-18T06:16:04.098Z,79.97
2018-12-18T06:18:31.676Z,80.19
2018-12-18T06:20:59.368Z,80.24
2018-12-18T06:23:26.969Z,80.51
2018-12-18T06:25:54.489Z,80.47
2018-12-18T06:28:21.968Z,80.60
2018-12-18T06:30:49.542Z,79.75
2018-12-18T06:33:17.136Z,80.04
2018-12-18T06:35:44.718Z,79.74
2018-12-18T06:38:13.400Z,79.99
2018-12-18T06:40:42.565Z,80.00
2018-12-18T06:43:10.202Z,79.80
2018-12-18T06:45:37.692Z,79.96
2018-12-18T06:48:05.219Z,80.17
2018-12-18T06:50:39.812Z,79.73
2018-12-18T06:53:07.420Z,80.47
2018-12-18T06:55:34.920Z,79.67
2018-12-18T06:58:02.496Z,80.12
2018-12-18T07:00:30.036Z,79.78
2018-12-18T07:02:57.502Z,79.11
2018-12-18T07:05:25.049Z,79.15
2018-12-18T07:07:57.429Z,79.39
2018-12-18T07:10:22.322Z,79.19
2018-12-18T07:12:49.931Z,79.44
2018-12-18T07:15:17.489Z,79.39
2018-12-18T07:17:45.642Z,79.15
2018-12-18T07:20:13.125Z,79.46
2018-12-18T07:22:40.620Z,78.89
2018-12-18T07:25:08.185Z,79.16
2018-12-18T07:27:35.712Z,79.02
2018-12-18T07:30:04.072Z,79.20
2018-12-18T07:32:32.300Z,78.95
2018-12-18T07:34:59.866Z,78.83
2018-12-18T07:37:27.867Z,78.61
2018-12-18T07:39:55.390Z,78.78
2018-12-18T07:42:22.876Z,78.97
2018-12-18T07:44:50.407Z,78.42
2018-12-18T07:47:17.986Z,78.68
2018-12-18T07:49:45.481Z,78.93
2018-12-18T07:52:12.954Z,78.69
2018-12-18T07:54:40.450Z,78.91
2018-12-18T07:57:07.933Z,78.75
2018-12-18T07:59:35.420Z,78.62
2018-12-18T08:02:02.893Z,78.46
2018-12-18T08:04:30.401Z,78.65
2018-12-18T08:06:57.935Z,78.55
2018-12-18T08:09:27.056Z,78.23
2018-12-18T08:11:55.005Z,78.11
2018-12-18T08:14:22.706Z,78.08
2018-12-18T08:16:50.327Z,77.89
2018-12-18T08:19:17.986Z,78.02
2018-12-18T08:21:45.483Z,78.08
2018-12-18T08:24:13.025Z,78.18
2018-12-18T08:26:40.675Z,77.90
2018-12-18T08:29:08.164Z,78.03
2018-12-18T08:31:35.757Z,78.40
2018-12-18T08:34:03.201Z,78.05
2018-12-18T08:36:30.801Z,78.07
2018-12-18T08:38:58.283Z,78.25
2018-12-18T08:41:25.803Z,78.32
2018-12-18T08:43:53.393Z,78.16
2018-12-18T08:46:20.881Z,78.25
2018-12-18T08:48:48.380Z,78.46
2018-12-18T08:51:16.208Z,77.94
2018-12-18T08:53:43.729Z,77.96
2018-12-18T08:56:11.262Z,77.86
2018-12-18T08:58:38.729Z,78.31
2018-12-18T09:01:06.183Z,78.05
2018-12-18T09:03:33.678Z,78.32
2018-12-18T09:06:01.330Z,77.45
2018-12-18T09:08:28.801Z,77.81
2018-12-18T09:10:57.129Z,77.68
2018-12-18T09:13:24.614Z,77.27
2018-12-18T09:15:56.109Z,77.34
2018-12-18T09:18:23.730Z,77.41
2018-12-18T09:20:51.252Z,76.85
2018-12-18T09:23:18.778Z,76.73
2018-12-18T09:25:46.278Z,76.89
2018-12-18T09:28:13.766Z,76.90
2018-12-18T09:30:42.712Z,77.27
2018-12-18T09:33:10.632Z,77.00
2018-12-18T09:35:38.116Z,76.72
2018-12-18T09:38:11.189Z,76.27
2018-12-18T09:40:44.144Z,76.24
2018-12-18T09:43:17.219Z,75.88
2018-12-18T09:45:44.747Z,76.17
2018-12-18T09:48:12.296Z,76.11
2018-12-18T09:50:39.771Z,75.71
2018-12-18T09:53:07.295Z,75.71
2018-12-18T09:55:34.747Z,75.88
2018-12-18T09:58:04.296Z,75.93
2018-12-18T10:00:31.789Z,75.12
2018-12-18T10:02:59.307Z,74.75
2018-12-18T10:05:27.765Z,75.60
2018-12-18T10:07:55.348Z,75.16
2018-12-18T10:10:23.647Z,74.96
2018-12-18T10:12:55.848Z,74.87
2018-12-18T10:15:25.039Z,74.95
2018-12-18T10:17:52.503Z,74.90
2018-12-18T10:20:20.108Z,74.90
2018-12-18T10:22:47.556Z,74.49
2018-12-18T10:25:15.154Z,74.91
2018-12-18T10:27:43.613Z,74.80
2018-12-18T10:30:11.111Z,74.63
2018-12-18T10:32:38.564Z,74.92
2018-12-18T10:35:06.423Z,75.08
2018-12-18T10:37:33.971Z,75.45
2018-12-18T10:40:01.759Z,74.71
2018-12-18T10:42:29.312Z,74.42
2018-12-18T10:44:56.842Z,75.04
2018-12-18T10:47:24.318Z,74.71
2018-12-18T10:49:51.820Z,74.45
2018-12-18T10:52:19.323Z,74.25
2018-12-18T10:54:46.801Z,73.71
2018-12-18T10:57:14.240Z,74.43
2018-12-18T10:59:41.866Z,73.53
2018-12-18T11:02:09.523Z,73.37
2018-12-18T11:04:37.094Z,73.66
2018-12-18T11:07:05.717Z,73.77
2018-12-18T11:09:33.270Z,72.95
2018-12-18T11:12:00.765Z,73.14
2018-12-18T11:14:28.481Z,72.21
2018-12-18T11:16:56.113Z,71.87
2018-12-18T11:19:23.650Z,71.85
2018-12-18T11:21:51.209Z,72.21
2018-12-18T11:24:18.645Z,71.94
2018-12-18T11:26:46.298Z,71.51
2018-12-18T11:29:14.092Z,71.40
2018-12-18T11:31:41.646Z,71.68
2018-12-18T11:34:10.471Z,71.56
2018-12-18T11:36:37.966Z,71.84
2018-12-18T11:39:06.412Z,71.41
2018-12-18T11:41:33.919Z,71.05
2018-12-18T11:44:01.469Z,70.77
2018-12-18T11:46:28.936Z,71.14
2018-12-18T11:48:56.414Z,71.43
2018-12-18T11:51:23.923Z,71.56
2018-12-18T11:53:51.499Z,71.87
2018-12-18T11:56:18.968Z,71.88
2018-12-18T11:58:46.622Z,71.53
2018-12-18T12:01:14.192Z,71.36
2018-12-18T12:03:41.730Z,71.21
2018-12-18T12:06:09.228Z,71.12
2018-12-18T12:08:36.884Z,70.69
2018-12-18T12:11:05.049Z,70.58
2018-12-18T12:13:33.113Z,70.52
2018-12-18T12:16:00.792Z,70.49
2018-12-18T12:18:28.887Z,70.38
2018-12-18T12:20:56.506Z,70.39
2018-12-18T12:23:23.977Z,70.59
2018-12-18T12:25:51.541Z,70.25
2018-12-18T12:28:19.075Z,70.33
2018-12-18T12:30:47.047Z,70.57
2018-12-18T12:33:14.560Z,70.11
2018-12-18T12:35:42.042Z,69.49
2018-12-18T12:38:09.471Z,69.36
2018-12-18T12:40:37.084Z,69.33
2018-12-18T12:43:04.581Z,69.55
2018-12-18T12:45:32.154Z,70.81
2018-12-18T12:47:59.717Z,71.23
2018-12-18T12:50:27.584Z,71.15
2018-12-18T12:52:55.305Z,71.45
2018-12-18T12:55:22.986Z,71.40
2018-12-18T12:57:50.487Z,71.33
2018-12-18T13:00:18.064Z,71.55
2018-12-18T13:02:45.547Z,71.60
2018-12-18T13:05:13.205Z,71.57
2018-12-18T13:07:40.790Z,71.79
2018-12-18T13:10:08.401Z,72.05
2018-12-18T13:12:35.978Z,72.04
2018-12-18T13:15:04.099Z,71.29
2018-12-18T13:17:31.578Z,70.99
2018-12-18T13:19:59.171Z,70.89
2018-12-18T13:22:27.608Z,71.08
2018-12-18T13:24:55.106Z,71.29
2018-12-18T13:27:22.605Z,71.38
2018-12-18T13:29:51.083Z,70.86
2018-12-18T13:32:18.572Z,71.09
2018-12-18T13:34:46.064Z,70.88
2018-12-18T13:37:13.641Z,70.81
2018-12-18T13:39:41.148Z,70.77
2018-12-18T13:42:08.717Z,71.08
2018-12-18T13:44:36.517Z,70.79
2018-12-18T13:47:04.181Z,70.66
2018-12-18T13:49:31.795Z,70.57
2018-12-18T13:51:59.274Z,70.80
2018-12-18T13:54:27.010Z,70.91
2018-12-18T13:56:56.107Z,71.25
2018-12-18T13:59:23.647Z,71.87
2018-12-18T14:01:51.121Z,71.56
2018-12-18T14:04:18.738Z,71.79
2018-12-18T14:06:49.575Z,71.63
2018-12-18T14:09:15.752Z,71.39
2018-12-18T14:11:43.256Z,71.11
2018-12-18T14:14:10.864Z,70.93
2018-12-18T14:16:38.523Z,71.36
2018-12-18T14:19:06.066Z,71.19
2018-12-18T14:21:33.577Z,71.21
2018-12-18T14:24:01.068Z,71.07
2018-12-18T14:26:29.241Z,71.15
2018-12-18T14:28:56.793Z,70.75
2018-12-18T14:31:24.272Z,71.22
2018-12-18T14:33:51.728Z,71.47
2018-12-18T14:36:19.192Z,71.19
2018-12-18T14:38:46.789Z,71.26
2018-12-18T14:41:14.357Z,71.45
2018-12-18T14:43:43.013Z,71.69
2018-12-18T14:46:11.673Z,72.03
2018-12-18T14:48:39.188Z,71.91
2018-12-18T14:51:06.627Z,71.76
2018-12-18T14:53:34.154Z,71.63
2018-12-18T14:56:01.620Z,71.52
2018-12-18T14:58:29.419Z,71.25
2018-12-18T15:00:56.889Z,71.46
2018-12-18T15:03:24.352Z,71.60
2018-12-18T15:05:51.964Z,71.19
2018-12-18T15:08:19.651Z,71.19
2018-12-18T15:10:47.238Z,70.93
2018-12-18T15:13:15.073Z,71.04
2018-12-18T15:15:42.552Z,70.90
2018-12-18T15:18:10.003Z,71.04
2018-12-18T15:20:37.575Z,71.42
2018-12-18T15:23:05.052Z,71.50
2018-12-18T15:25:32.517Z,71.64
2018-12-18T15:28:00.042Z,71.88
2018-12-18T15:30:27.667Z,72.19
2018-12-18T15:32:55.637Z,72.51
2018-12-18T15:35:23.722Z,72.74
2018-12-18T15:37:52.148Z,71.53
2018-12-18T15:40:19.670Z,71.67
2018-12-18T15:42:47.166Z,71.61
2018-12-18T15:45:14.661Z,72.01
2018-12-18T15:47:42.103Z,72.03
2018-12-18T15:50:09.614Z,72.02
2018-12-18T15:52:37.058Z,71.61
2018-12-18T15:55:05.191Z,72.38
2018-12-18T15:57:32.623Z,71.89
2018-12-18T16:00:00.169Z,71.38
2018-12-18T16:02:27.690Z,71.98
2018-12-18T16:04:55.357Z,72.74
2018-12-18T16:07:23.882Z,72.39
2018-12-18T16:09:51.362Z,72.65
2018-12-18T16:12:18.958Z,73.56
2018-12-18T16:14:46.485Z,73.33
2018-12-18T16:17:13.936Z,73.13
2018-12-18T16:19:41.492Z,73.62
2018-12-18T16:22:09.018Z,74.20
2018-12-18T16:24:36.566Z,74.55
2018-12-18T16:27:04.047Z,74.08
2018-12-18T16:29:31.596Z,73.29
2018-12-18T16:31:59.179Z,72.91
2018-12-18T16:34:26.793Z,73.83
2018-12-18T16:36:54.303Z,73.49
2018-12-18T16:39:21.767Z,72.46
2018-12-18T16:41:49.248Z,73.23
2018-12-18T16:44:16.776Z,72.67
2018-12-18T16:46:44.279Z,73.08
2018-12-18T16:49:11.799Z,73.94
2018-12-18T16:51:39.347Z,73.69
2018-12-18T16:54:07.194Z,74.07
2018-12-18T16:56:35.056Z,74.40
2018-12-18T16:59:02.623Z,73.71
2018-12-18T17:01:30.100Z,73.42
2018-12-18T17:03:57.561Z,74.41
2018-12-18T17:06:25.051Z,74.42
2018-12-18T17:08:52.653Z,74.05
2018-12-18T17:11:20.149Z,73.74
2018-12-18T17:13:47.778Z,73.65
2018-12-18T17:16:16.447Z,72.95
2018-12-18T17:18:44.048Z,73.45
2018-12-18T17:21:11.521Z,73.66
2018-12-18T17:23:39.471Z,73.43
2018-12-18T17:26:06.952Z,73.47
2018-12-18T17:28:34.443Z,73.20
2018-12-18T17:31:01.968Z,73.57
2018-12-18T17:33:29.424Z,73.39
2018-12-18T17:35:57.055Z,73.14
2018-12-18T17:38:25.689Z,73.57
2018-12-18T17:40:53.431Z,73.60
2018-12-18T17:43:21.243Z,73.15
2018-12-18T17:45:48.747Z,73.75
2018-12-18T17:48:16.204Z,73.10
2018-12-18T17:53:22.740Z,73.61
2018-12-18T17:55:50.196Z,73.81
2018-12-18T17:58:17.800Z,73.05
2018-12-18T18:00:45.331Z,74.02
2018-12-18T18:03:13.003Z,73.11
2018-12-18T18:05:40.542Z,73.86
2018-12-18T18:08:08.220Z,73.17
2018-12-18T18:10:36.628Z,73.33
2018-12-18T18:13:04.080Z,73.37
2018-12-18T18:15:31.547Z,73.17
2018-12-18T18:17:59.142Z,73.39
2018-12-18T18:20:26.655Z,73.89
2018-12-18T18:22:54.118Z,73.37
2018-12-18T18:25:21.820Z,74.13
2018-12-18T18:27:49.426Z,74.33
2018-12-18T18:30:17.960Z,74.32
2018-12-18T18:32:46.656Z,74.36
2018-12-18T18:35:14.102Z,73.65
2018-12-18T18:37:41.580Z,74.79
2018-12-18T18:40:09.037Z,74.39
2018-12-18T18:42:36.519Z,74.22
2018-12-18T18:45:04.499Z,74.64
2018-12-18T18:47:31.951Z,74.45
2018-12-18T18:49:59.407Z,74.31
2018-12-18T18:52:31.334Z,74.31
2018-12-18T18:55:03.370Z,75.17
2018-12-18T18:57:31.960Z,75.02
2018-12-18T19:00:01.902Z,74.42
2018-12-18T19:02:29.398Z,75.44
2018-12-18T19:04:58.478Z,75.56
2018-12-18T19:07:30.056Z,75.77
2018-12-18T19:09:59.219Z,75.02
2018-12-18T19:12:32.373Z,74.89
2018-12-18T19:15:00.740Z,75.94
2018-12-18T19:17:28.874Z,75.89
2018-12-18T19:19:56.387Z,75.15
2018-12-18T19:22:23.953Z,75.33
2018-12-18T19:24:51.471Z,75.19
2018-12-18T19:27:18.966Z,76.03
2018-12-18T19:29:47.166Z,75.18
2018-12-18T19:32:14.608Z,75.69
2018-12-18T19:34:43.033Z,76.25
2018-12-18T19:37:10.632Z,75.92
2018-12-18T19:39:38.517Z,75.26
2018-12-18T19:42:06.394Z,75.01
2018-12-18T19:44:34.591Z,75.08
2018-12-18T19:47:02.094Z,75.58
2018-12-18T19:49:29.889Z,75.31
2018-12-18T19:51:57.492Z,75.17
2018-12-18T19:54:25.057Z,76.17
2018-12-18T19:56:53.520Z,75.82
2018-12-18T19:59:21.127Z,75.17
2018-12-18T20:01:48.641Z,75.25
2018-12-18T20:04:16.113Z,75.02
2018-12-18T20:06:43.611Z,75.35
2018-12-18T20:09:11.155Z,75.13
2018-12-18T20:11:38.691Z,75.68
2018-12-18T20:14:06.164Z,74.68
2018-12-18T20:16:33.962Z,74.64
2018-12-18T20:19:01.393Z,74.83
2018-12-18T20:21:28.896Z,75.05
2018-12-18T20:23:56.367Z,74.93
2018-12-18T20:26:23.850Z,74.62
2018-12-18T20:28:51.360Z,75.79
2018-12-18T20:31:18.801Z,75.14
2018-12-18T20:33:46.494Z,75.69
2018-12-18T20:36:14.073Z,75.13
2018-12-18T20:38:42.625Z,75.48
2018-12-18T20:41:10.154Z,74.81
2018-12-18T20:43:37.631Z,75.28
2018-12-18T20:46:05.126Z,74.75
2018-12-18T20:48:32.981Z,76.00
2018-12-18T20:51:00.440Z,75.68
2018-12-18T20:53:27.932Z,75.32
2018-12-18T20:55:55.407Z,75.21
2018-12-18T20:58:23.087Z,75.34
2018-12-18T21:00:50.728Z,75.95
2018-12-18T21:03:18.278Z,75.84
2018-12-18T21:05:45.781Z,76.55
2018-12-18T21:08:13.813Z,76.14
2018-12-18T21:10:41.298Z,75.14
2018-12-18T21:13:14.460Z,75.21
2018-12-18T21:15:42.451Z,75.79
2018-12-18T21:18:10.054Z,75.19
2018-12-18T21:20:37.529Z,75.89
2018-12-18T21:23:05.003Z,75.13
2018-12-18T21:25:33.137Z,75.18
2018-12-18T21:28:00.580Z,75.72
2018-12-18T21:30:28.639Z,75.71
2018-12-18T21:32:56.122Z,75.61
2018-12-18T21:35:23.718Z,76.05
2018-12-18T21:37:51.246Z,75.81
2018-12-18T21:40:18.774Z,75.49
2018-12-18T21:42:46.226Z,76.28
2018-12-18T21:45:13.687Z,76.09
2018-12-18T21:47:41.166Z,76.37
2018-12-18T21:50:08.795Z,75.28
2018-12-18T21:52:36.267Z,75.77
2018-12-18T21:55:04.301Z,75.52
2018-12-18T21:57:31.874Z,76.01
2018-12-18T21:59:59.407Z,76.38
2018-12-18T22:02:26.958Z,76.69
2018-12-18T22:04:54.447Z,76.51
2018-12-18T22:07:21.913Z,76.13
2018-12-18T22:09:49.362Z,76.32
2018-12-18T22:12:16.910Z,76.84
2018-12-18T22:14:44.451Z,76.29
2018-12-18T22:17:11.923Z,76.42
2018-12-18T22:19:39.485Z,76.01
2018-12-18T22:22:06.987Z,76.85
2018-12-18T22:24:34.580Z,76.19
2018-12-18T22:27:02.495Z,76.24
2018-12-18T22:29:30.010Z,76.51
2018-12-18T22:31:57.491Z,75.95
2018-12-18T22:34:25.064Z,76.35
2018-12-18T22:36:52.530Z,76.75
2018-12-18T22:39:20.057Z,75.64
2018-12-18T22:41:47.563Z,75.94
2018-12-18T22:44:15.002Z,76.38
2018-12-18T22:46:42.456Z,76.92
2018-12-18T22:49:10.000Z,77.33
2018-12-18T22:51:37.483Z,76.51
2018-12-18T22:54:04.995Z,77.36
2018-12-18T22:56:33.231Z,77.01
2018-12-18T22:59:00.871Z,76.65
2018-12-18T23:01:35.926Z,76.65
2018-12-18T23:04:03.580Z,76.95
2018-12-18T23:09:15.895Z,76.11
2018-12-18T23:11:43.457Z,76.61
2018-12-18T23:14:10.985Z,77.41
2018-12-18T23:16:38.532Z,76.96
2018-12-18T23:19:06.189Z,76.41
2018-12-18T23:21:33.732Z,77.37
2018-12-18T23:24:01.170Z,76.84
2018-12-18T23:26:29.415Z,76.87
2018-12-18T23:28:56.854Z,77.28
2018-12-18T23:31:24.315Z,76.58
2018-12-18T23:33:51.832Z,76.65
2018-12-18T23:36:19.317Z,75.75
2018-12-18T23:38:46.808Z,76.60
2018-12-18T23:41:14.419Z,76.41
2018-12-18T23:43:41.917Z,76.50
2018-12-18T23:46:09.448Z,76.43
2018-12-18T23:48:39.868Z,76.07
2018-12-18T23:51:06.621Z,76.35
2018-12-18T23:53:34.074Z,75.88
2018-12-18T23:56:01.542Z,76.23
2018-12-18T23:58:28.990Z,76.59
